createdAt,value
2023-05-24T00:01:34.345Z,99.90
2023-05-24T00:04:03.260Z,99.90
2023-05-24T00:06:35.131Z,99.90
2023-05-24T00:09:03.863Z,99.90
2023-05-24T00:11:32.650Z,99.90
2023-05-24T00:14:02.733Z,99.90
2023-05-24T00:16:31.537Z,99.90
2023-05-24T00:19:00.517Z,99.90
2023-05-24T00:21:29.252Z,99.90
2023-05-24T00:23:57.881Z,99.90
2023-05-24T00:26:26.983Z,99.90
2023-05-24T00:28:55.815Z,99.90
2023-05-24T00:31:26.052Z,99.90
2023-05-24T00:33:54.862Z,99.90
2023-05-24T00:36:23.639Z,99.90
2023-05-24T00:38:53.126Z,99.90
2023-05-24T00:41:21.956Z,99.90
2023-05-24T00:43:50.881Z,99.90
2023-05-24T00:46:22.796Z,99.90
2023-05-24T00:48:53.193Z,99.90
2023-05-24T00:51:22.426Z,99.90
2023-05-24T00:53:51.583Z,99.90
2023-05-24T00:56:22.532Z,99.90
2023-05-24T00:58:54.963Z,99.90
2023-05-24T01:01:25.976Z,99.90
2023-05-24T01:03:57.638Z,99.90
2023-05-24T01:06:27.386Z,99.90
2023-05-24T01:09:10.434Z,99.90
2023-05-24T01:11:52.073Z,99.90
2023-05-24T01:14:27.857Z,99.90
2023-05-24T01:17:02.321Z,99.90
2023-05-24T01:19:50.220Z,99.90
2023-05-24T01:22:35.929Z,99.90
2023-05-24T01:25:08.683Z,99.90
2023-05-24T01:27:40.200Z,99.90
2023-05-24T01:30:10.719Z,99.90
2023-05-24T01:32:39.835Z,99.90
2023-05-24T01:35:09.237Z,99.90
2023-05-24T01:37:37.939Z,99.90
2023-05-24T01:40:08.166Z,99.90
2023-05-24T01:42:47.146Z,99.90
2023-05-24T01:45:22.467Z,99.90
2023-05-24T01:48:03.450Z,99.90
2023-05-24T01:50:36.087Z,99.90
2023-05-24T01:53:08.080Z,99.90
2023-05-24T01:55:38.909Z,99.90
2023-05-24T01:58:11.394Z,99.90
2023-05-24T02:00:42.133Z,99.90
2023-05-24T02:03:11.519Z,99.90
2023-05-24T02:05:40.966Z,99.90
2023-05-24T02:08:09.685Z,99.90
2023-05-24T02:10:39.800Z,99.90
2023-05-24T02:13:10.738Z,99.90
2023-05-24T02:15:42.129Z,99.90
2023-05-24T02:18:11.549Z,99.90
2023-05-24T02:20:40.432Z,99.90
2023-05-24T02:23:09.462Z,99.90
2023-05-24T02:25:38.248Z,99.90
2023-05-24T02:28:06.903Z,99.90
2023-05-24T02:30:37.064Z,99.90
2023-05-24T02:33:05.916Z,99.90
2023-05-24T02:35:34.667Z,99.90
2023-05-24T02:38:04.018Z,99.90
2023-05-24T02:40:32.760Z,99.90
2023-05-24T02:43:01.450Z,99.90
2023-05-24T02:45:30.206Z,99.90
2023-05-24T02:48:00.415Z,99.90
2023-05-24T02:50:29.273Z,99.90
2023-05-24T02:52:58.006Z,99.90
2023-05-24T02:55:27.138Z,99.90
2023-05-24T02:57:55.844Z,99.90
2023-05-24T03:00:24.659Z,99.90
2023-05-24T03:02:53.418Z,99.90
2023-05-24T03:05:23.795Z,99.90
2023-05-24T03:07:52.416Z,99.90
2023-05-24T03:10:21.068Z,99.90
2023-05-24T03:12:49.735Z,99.90
2023-05-24T03:15:18.457Z,99.90
2023-05-24T03:17:47.346Z,99.90
2023-05-24T03:20:17.879Z,99.90
2023-05-24T03:22:48.041Z,99.90
2023-05-24T03:25:16.884Z,99.90
2023-05-24T03:27:45.857Z,99.90
2023-05-24T03:30:15.217Z,99.90
2023-05-24T03:32:43.929Z,99.90
2023-05-24T03:35:12.834Z,99.90
2023-05-24T03:37:41.994Z,99.90
2023-05-24T03:40:12.914Z,99.90
2023-05-24T03:42:41.696Z,99.90
2023-05-24T03:45:11.491Z,99.90
2023-05-24T03:47:40.214Z,99.90
2023-05-24T03:50:09.702Z,99.90
2023-05-24T03:52:38.391Z,99.90
2023-05-24T03:55:08.116Z,99.90
2023-05-24T03:57:38.234Z,99.90
2023-05-24T04:00:09.893Z,99.90
2023-05-24T04:02:39.488Z,99.90
2023-05-24T04:05:10.485Z,99.90
2023-05-24T04:07:39.262Z,99.90
2023-05-24T04:10:09.149Z,99.90
2023-05-24T04:12:39.972Z,99.90
2023-05-24T04:15:10.176Z,99.90
2023-05-24T04:17:39.163Z,99.90
2023-05-24T04:20:09.882Z,99.90
2023-05-24T04:22:38.810Z,99.90
2023-05-24T04:25:10.270Z,99.90
2023-05-24T04:27:40.909Z,99.90
2023-05-24T04:30:10.730Z,99.90
2023-05-24T04:32:40.894Z,99.90
2023-05-24T04:35:09.998Z,99.90
2023-05-24T04:37:38.704Z,99.90
2023-05-24T04:40:08.909Z,99.90
2023-05-24T04:42:37.691Z,99.90
2023-05-24T04:45:09.161Z,99.90
2023-05-24T04:47:37.975Z,99.90
2023-05-24T04:50:07.704Z,99.90
2023-05-24T04:52:36.932Z,99.90
2023-05-24T04:55:06.410Z,99.90
2023-05-24T04:57:35.249Z,99.90
2023-05-24T05:00:04.962Z,99.90
2023-05-24T05:02:35.394Z,99.90
2023-05-24T05:05:04.280Z,99.90
2023-05-24T05:07:33.019Z,99.90
2023-05-24T05:10:01.739Z,99.90
2023-05-24T05:12:30.494Z,99.90
2023-05-24T05:14:59.319Z,99.90
2023-05-24T05:17:28.003Z,99.90
2023-05-24T05:19:58.270Z,99.90
2023-05-24T05:22:27.904Z,99.90
2023-05-24T05:24:57.700Z,99.90
2023-05-24T05:27:26.439Z,99.90
2023-05-24T05:29:55.214Z,99.90
2023-05-24T05:32:23.890Z,99.90
2023-05-24T05:34:52.656Z,99.90
2023-05-24T05:37:22.827Z,99.90
2023-05-24T05:39:51.570Z,99.90
2023-05-24T05:42:20.177Z,99.90
2023-05-24T05:44:48.818Z,99.90
2023-05-24T05:47:18.071Z,99.90
2023-05-24T05:49:46.838Z,99.90
2023-05-24T05:52:15.525Z,99.90
2023-05-24T05:54:45.583Z,99.90
2023-05-24T05:57:14.294Z,99.90
2023-05-24T05:59:42.974Z,99.90
2023-05-24T06:02:13.082Z,99.90
2023-05-24T06:04:41.909Z,92.60
2023-05-24T06:07:11.149Z,66.60
2023-05-24T06:09:39.875Z,12.10
2023-05-24T06:12:10.183Z,17.20
2023-05-24T06:14:39.395Z,23.90
2023-05-24T06:17:08.456Z,7.40
2023-05-24T06:19:37.238Z,1.00
2023-05-24T06:22:06.270Z,1.00
2023-05-24T06:24:36.327Z,1.00
2023-05-24T06:27:05.695Z,1.00
2023-05-24T06:29:44.230Z,1.00
2023-05-24T06:32:27.146Z,1.00
2023-05-24T06:35:29.346Z,1.00
2023-05-24T06:42:04.400Z,1.00
2023-05-24T06:44:45.757Z,99.90
2023-05-24T06:51:14.001Z,1.00
2023-05-24T06:53:49.919Z,1.00
2023-05-24T07:00:21.024Z,1.00
2023-05-24T07:02:51.760Z,99.90
2023-05-24T07:05:24.520Z,1.00
2023-05-24T07:07:53.921Z,1.00
2023-05-24T07:10:23.843Z,1.00
2023-05-24T07:12:53.002Z,99.90
2023-05-24T07:15:26.930Z,99.90
2023-05-24T07:18:00.600Z,1.00
2023-05-24T07:20:44.809Z,4.10
2023-05-24T07:23:14.500Z,99.90
2023-05-24T07:25:45.152Z,1.00
2023-05-24T07:28:18.737Z,1.00
2023-05-24T07:30:51.491Z,1.00
2023-05-24T07:33:22.664Z,1.00
2023-05-24T07:35:54.380Z,1.00
2023-05-24T07:38:23.301Z,99.90
2023-05-24T07:40:54.802Z,1.00
2023-05-24T07:43:23.613Z,1.00
2023-05-24T07:45:58.846Z,1.00
2023-05-24T07:48:33.124Z,1.00
2023-05-24T07:51:05.626Z,99.90
2023-05-24T07:53:43.725Z,99.90
2023-05-24T07:56:17.680Z,99.90
2023-05-24T07:58:50.348Z,99.90
2023-05-24T08:01:23.175Z,99.90
2023-05-24T08:03:56.026Z,99.90
2023-05-24T08:06:25.275Z,99.90
2023-05-24T08:08:54.061Z,99.90
2023-05-24T08:11:26.169Z,99.90
2023-05-24T08:13:58.633Z,99.90
2023-05-24T08:16:35.648Z,99.90
2023-05-24T08:19:04.817Z,99.90
2023-05-24T08:21:34.671Z,99.90
2023-05-24T08:24:08.414Z,99.90
2023-05-24T08:26:41.668Z,99.90
2023-05-24T08:29:12.512Z,75.30
2023-05-24T08:31:46.657Z,15.30
2023-05-24T08:34:20.193Z,3.40
2023-05-24T08:36:50.600Z,31.50
2023-05-24T08:39:22.019Z,33.30
2023-05-24T08:42:07.913Z,46.40
2023-05-24T08:44:50.364Z,27.50
2023-05-24T08:47:25.757Z,11.30
2023-05-24T08:49:58.662Z,34.10
2023-05-24T08:52:33.612Z,1.00
2023-05-24T08:55:08.131Z,1.00
2023-05-24T08:57:43.674Z,1.00
2023-05-24T09:00:17.041Z,1.00
2023-05-24T09:02:48.811Z,1.00
2023-05-24T09:05:22.762Z,1.00
2023-05-24T09:07:53.638Z,1.00
2023-05-24T09:10:29.731Z,1.00
2023-05-24T09:13:04.320Z,1.00
2023-05-24T09:15:35.668Z,1.00
2023-05-24T09:18:09.405Z,1.00
2023-05-24T09:20:43.030Z,1.00
2023-05-24T09:23:16.294Z,1.00
2023-05-24T09:25:49.656Z,1.00
2023-05-24T09:28:24.561Z,1.00
2023-05-24T09:31:10.409Z,1.00
2023-05-24T09:33:44.287Z,1.00
2023-05-24T09:36:15.918Z,1.00
2023-05-24T09:38:47.601Z,1.00
2023-05-24T09:41:18.944Z,1.00
2023-05-24T09:43:58.448Z,1.00
2023-05-24T09:46:30.189Z,1.00
2023-05-24T09:49:09.975Z,1.00
2023-05-24T09:51:43.069Z,1.00
2023-05-24T09:54:16.691Z,1.00
2023-05-24T09:56:52.521Z,1.00
2023-05-24T09:59:27.128Z,1.00
2023-05-24T10:02:16.661Z,1.00
2023-05-24T10:04:49.568Z,1.00
2023-05-24T10:07:25.912Z,1.00
2023-05-24T10:09:56.554Z,1.00
2023-05-24T10:12:27.029Z,1.00
2023-05-24T10:15:06.570Z,1.00
2023-05-24T10:17:43.709Z,1.00
2023-05-24T10:20:16.280Z,1.00
2023-05-24T10:22:48.159Z,1.00
2023-05-24T10:25:26.471Z,1.00
2023-05-24T10:27:59.416Z,1.00
2023-05-24T10:30:36.575Z,1.00
2023-05-24T10:33:10.451Z,1.00
2023-05-24T10:36:20.397Z,1.00
2023-05-24T10:47:25.535Z,1.00
2023-05-24T10:50:01.205Z,1.00
2023-05-24T10:52:43.203Z,1.00
2023-05-24T10:55:15.803Z,1.00
2023-05-24T10:57:50.326Z,1.00
2023-05-24T11:00:35.786Z,1.00
2023-05-24T11:03:11.108Z,1.00
2023-05-24T11:05:56.685Z,1.00
2023-05-24T11:08:39.641Z,1.00
2023-05-24T11:13:45.428Z,1.00
2023-05-24T11:16:45.301Z,1.00
2023-05-24T11:19:18.289Z,1.00
2023-05-24T11:21:50.203Z,1.00
2023-05-24T11:24:27.801Z,1.00
2023-05-24T11:27:00.263Z,1.00
2023-05-24T11:29:33.935Z,1.00
2023-05-24T11:32:05.637Z,1.00
2023-05-24T11:34:35.704Z,1.00
2023-05-24T11:37:07.590Z,1.00
2023-05-24T11:39:41.664Z,1.00
2023-05-24T11:42:11.917Z,1.00
2023-05-24T11:44:45.644Z,1.00
2023-05-24T11:47:17.444Z,1.00
2023-05-24T11:49:55.604Z,1.00
2023-05-24T11:52:30.708Z,1.00
2023-05-24T11:55:05.508Z,1.00
2023-05-24T11:57:41.553Z,1.00
2023-05-24T12:00:18.609Z,1.00
2023-05-24T12:02:50.687Z,1.00
2023-05-24T12:05:24.373Z,1.00
2023-05-24T12:08:11.708Z,1.00
2023-05-24T12:10:51.784Z,1.00
2023-05-24T12:13:29.348Z,1.00
2023-05-24T12:16:02.717Z,1.00
2023-05-24T12:18:36.066Z,1.00
2023-05-24T12:21:15.157Z,1.00
2023-05-24T12:23:45.603Z,1.00
2023-05-24T12:26:23.824Z,1.00
2023-05-24T12:28:59.705Z,1.00
2023-05-24T12:31:30.155Z,1.00
2023-05-24T12:34:05.672Z,1.00
2023-05-24T12:36:37.819Z,1.00
2023-05-24T12:39:32.133Z,1.00
2023-05-24T12:42:11.701Z,1.00
2023-05-24T12:44:46.671Z,1.00
2023-05-24T12:47:21.805Z,1.00
2023-05-24T12:49:58.760Z,1.00
2023-05-24T12:52:33.129Z,1.00
2023-05-24T12:55:04.193Z,1.00
2023-05-24T12:57:40.294Z,1.00
2023-05-24T13:00:14.596Z,1.00
2023-05-24T13:02:47.789Z,1.00
2023-05-24T13:05:18.773Z,1.00
2023-05-24T13:07:51.604Z,1.00
2023-05-24T13:10:23.714Z,1.00
2023-05-24T13:12:59.575Z,1.00
2023-05-24T13:15:31.463Z,1.00
2023-05-24T13:18:03.764Z,1.00
2023-05-24T13:20:36.256Z,1.00
2023-05-24T13:23:05.101Z,1.00
2023-05-24T13:25:36.722Z,1.00
2023-05-24T13:28:11.413Z,1.00
2023-05-24T13:30:43.846Z,1.00
2023-05-24T13:33:16.460Z,1.00
2023-05-24T13:35:48.730Z,1.00
2023-05-24T13:38:25.432Z,1.00
2023-05-24T13:41:00.633Z,1.00
2023-05-24T13:43:34.180Z,1.00
2023-05-24T13:46:10.325Z,1.00
2023-05-24T13:48:46.609Z,1.00
2023-05-24T13:51:21.720Z,1.00
2023-05-24T13:53:57.014Z,1.00
2023-05-24T13:56:33.643Z,1.00
2023-05-24T13:59:09.634Z,1.00
2023-05-24T14:01:39.498Z,1.00
2023-05-24T14:04:12.482Z,1.00
2023-05-24T14:06:43.735Z,1.00
2023-05-24T14:09:12.610Z,1.00
2023-05-24T14:11:42.922Z,1.00
2023-05-24T14:16:51.975Z,1.00
2023-05-24T14:19:22.196Z,1.00
2023-05-24T14:21:53.408Z,1.00
2023-05-24T14:24:24.712Z,1.00
2023-05-24T14:26:55.629Z,1.00
2023-05-24T14:29:26.421Z,1.00
2023-05-24T14:31:55.387Z,1.00
2023-05-24T14:34:25.659Z,1.00
2023-05-24T14:36:55.402Z,1.00
2023-05-24T14:39:27.676Z,1.00
2023-05-24T14:41:56.758Z,1.00
2023-05-24T14:44:28.244Z,1.00
2023-05-24T14:46:58.134Z,1.00
2023-05-24T14:49:28.181Z,1.00
2023-05-24T14:51:58.501Z,1.00
2023-05-24T14:54:29.897Z,1.00
2023-05-24T14:57:01.469Z,1.00
2023-05-24T14:59:31.654Z,1.00
2023-05-24T15:02:02.774Z,1.00
2023-05-24T15:04:33.699Z,1.00
2023-05-24T15:07:03.391Z,1.00
2023-05-24T15:09:33.826Z,1.00
2023-05-24T15:12:04.470Z,1.00
2023-05-24T15:14:34.632Z,1.00
2023-05-24T15:17:03.591Z,1.00
2023-05-24T15:19:32.380Z,1.00
2023-05-24T15:22:07.703Z,1.00
2023-05-24T15:24:39.778Z,1.00
2023-05-24T15:27:10.016Z,1.00
2023-05-24T15:29:40.234Z,1.00
2023-05-24T15:32:11.994Z,1.00
2023-05-24T15:34:41.397Z,1.00
2023-05-24T15:37:10.942Z,1.00
2023-05-24T15:39:40.352Z,1.00
2023-05-24T15:42:11.628Z,1.00
2023-05-24T15:44:43.705Z,1.00
2023-05-24T15:47:15.528Z,1.00
2023-05-24T15:49:44.844Z,1.00
2023-05-24T15:52:13.697Z,1.00
2023-05-24T15:54:42.459Z,1.00
2023-05-24T15:57:12.701Z,1.00
2023-05-24T15:59:42.966Z,1.00
2023-05-24T16:02:12.538Z,1.00
2023-05-24T16:04:43.704Z,1.00
2023-05-24T16:07:14.938Z,1.00
2023-05-24T16:09:43.921Z,1.00
2023-05-24T16:12:14.641Z,1.00
2023-05-24T16:14:46.698Z,1.00
2023-05-24T16:17:16.454Z,1.00
2023-05-24T16:19:49.855Z,1.00
2023-05-24T16:22:18.769Z,1.00
2023-05-24T16:24:51.842Z,1.00
2023-05-24T16:27:22.898Z,1.00
2023-05-24T16:30:00.714Z,1.00
2023-05-24T16:32:32.818Z,1.00
2023-05-24T16:35:01.748Z,1.00
2023-05-24T16:37:36.667Z,1.00
2023-05-24T16:40:07.656Z,1.00
2023-05-24T16:42:38.958Z,1.00
2023-05-24T16:45:18.058Z,1.00
2023-05-24T16:47:50.992Z,1.00
2023-05-24T16:50:23.880Z,1.00
2023-05-24T16:52:56.385Z,1.00
2023-05-24T16:55:30.103Z,1.00
2023-05-24T16:58:07.680Z,1.00
2023-05-24T17:00:38.318Z,1.00
2023-05-24T17:03:10.269Z,1.00
2023-05-24T17:05:42.532Z,1.00
2023-05-24T17:08:13.467Z,1.00
2023-05-24T17:10:45.564Z,1.00
2023-05-24T17:13:20.079Z,1.00
2023-05-24T17:19:38.655Z,1.00
2023-05-24T17:22:12.623Z,1.00
2023-05-24T17:25:01.847Z,1.00
2023-05-24T17:28:06.607Z,1.00
2023-05-24T17:31:35.982Z,1.00
2023-05-24T17:34:06.267Z,1.00
2023-05-24T17:36:38.542Z,1.00
2023-05-24T17:39:07.434Z,1.00
2023-05-24T17:41:36.322Z,1.00
2023-05-24T17:44:08.660Z,1.00
2023-05-24T17:46:41.465Z,1.00
2023-05-24T17:49:14.316Z,1.00
2023-05-24T17:51:43.112Z,1.00
2023-05-24T17:54:16.366Z,1.00
2023-05-24T17:56:48.680Z,1.00
2023-05-24T17:59:29.321Z,1.00
2023-05-24T18:01:58.417Z,1.00
2023-05-24T18:04:28.700Z,2.60
2023-05-24T18:07:01.163Z,15.50
2023-05-24T18:09:32.115Z,69.00
2023-05-24T18:12:03.603Z,97.60
2023-05-24T18:14:32.969Z,99.90
2023-05-24T18:17:07.704Z,99.90
2023-05-24T18:19:43.929Z,99.90
2023-05-24T18:22:21.697Z,99.90
2023-05-24T18:24:55.641Z,99.90
2023-05-24T18:27:29.556Z,99.90
2023-05-24T18:30:02.744Z,99.90
2023-05-24T18:32:35.410Z,99.90
2023-05-24T18:35:41.494Z,99.90
2023-05-24T18:38:12.597Z,99.90
2023-05-24T18:40:43.505Z,99.90
2023-05-24T18:43:13.587Z,99.90
2023-05-24T18:45:43.301Z,99.90
2023-05-24T18:48:13.144Z,99.90
2023-05-24T18:50:44.167Z,99.90
2023-05-24T18:53:13.534Z,99.90
2023-05-24T18:55:42.853Z,99.90
2023-05-24T18:58:13.167Z,1.00
2023-05-24T19:00:42.394Z,1.00
2023-05-24T19:03:17.124Z,1.00
2023-05-24T19:05:47.872Z,1.00
2023-05-24T19:08:17.067Z,1.00
2023-05-24T19:10:47.008Z,4.40
2023-05-24T19:13:16.705Z,16.30
2023-05-24T19:15:45.793Z,99.90
2023-05-24T19:18:15.019Z,99.90
2023-05-24T19:20:45.376Z,99.90
2023-05-24T19:23:15.655Z,99.90
2023-05-24T19:25:45.166Z,99.90
2023-05-24T19:28:14.168Z,99.90
2023-05-24T19:30:43.075Z,99.90
2023-05-24T19:33:11.991Z,1.00
2023-05-24T19:35:41.080Z,1.00
2023-05-24T19:38:10.052Z,1.00
2023-05-24T19:40:40.228Z,1.00
2023-05-24T19:43:09.143Z,35.80
2023-05-24T19:45:37.944Z,14.50
2023-05-24T19:48:09.830Z,99.90
2023-05-24T19:50:39.621Z,1.00
2023-05-24T19:53:08.650Z,86.30
2023-05-24T19:55:37.641Z,99.90
2023-05-24T19:58:07.984Z,99.90
2023-05-24T20:00:37.002Z,99.90
2023-05-24T20:03:05.968Z,1.00
2023-05-24T20:05:34.889Z,99.90
2023-05-24T20:08:03.706Z,1.00
2023-05-24T20:10:35.883Z,99.90
2023-05-24T20:13:06.366Z,1.00
2023-05-24T20:15:35.118Z,99.90
2023-05-24T20:18:03.774Z,99.90
2023-05-24T20:20:36.918Z,99.90
2023-05-24T20:23:05.794Z,1.00
2023-05-24T20:25:34.573Z,1.00
2023-05-24T20:28:03.833Z,1.00
2023-05-24T20:30:34.900Z,99.90
2023-05-24T20:33:03.757Z,63.90
2023-05-24T20:35:32.527Z,99.90
2023-05-24T20:38:01.311Z,99.90
2023-05-24T20:40:30.121Z,99.90
2023-05-24T20:42:58.922Z,99.90
2023-05-24T20:45:27.734Z,99.90
2023-05-24T20:47:59.096Z,99.90
2023-05-24T20:50:28.555Z,99.90
2023-05-24T20:52:57.388Z,99.90
2023-05-24T20:55:29.054Z,99.90
2023-05-24T20:57:57.824Z,99.90
2023-05-24T21:00:26.974Z,99.90
2023-05-24T21:02:55.944Z,99.90
2023-05-24T21:05:26.335Z,1.00
2023-05-24T21:07:55.151Z,1.00
2023-05-24T21:10:28.398Z,1.00
2023-05-24T21:12:57.260Z,1.00
2023-05-24T21:15:26.082Z,1.00
2023-05-24T21:17:55.026Z,1.00
2023-05-24T21:20:25.839Z,1.00
2023-05-24T21:22:54.720Z,1.00
2023-05-24T21:25:23.607Z,1.00
2023-05-24T21:27:52.411Z,1.00
2023-05-24T21:30:21.758Z,1.00
2023-05-24T21:32:50.571Z,1.00
2023-05-24T21:35:19.470Z,1.00
2023-05-24T21:37:49.951Z,1.00
2023-05-24T21:40:18.799Z,1.00
2023-05-24T21:42:47.642Z,1.00
2023-05-24T21:45:16.669Z,1.00
2023-05-24T21:47:45.560Z,1.00
2023-05-24T21:50:15.888Z,26.30
2023-05-24T21:52:44.721Z,18.10
2023-05-24T21:55:15.959Z,18.30
2023-05-24T21:57:45.416Z,14.70
2023-05-24T22:00:17.380Z,38.40
2023-05-24T22:02:46.949Z,65.20
2023-05-24T22:05:16.562Z,96.40
2023-05-24T22:07:47.314Z,71.30
2023-05-24T22:10:18.719Z,85.10
2023-05-24T22:12:48.800Z,85.50
2023-05-24T22:15:17.723Z,92.70
2023-05-24T22:17:46.570Z,99.90
2023-05-24T22:20:15.449Z,99.90
2023-05-24T22:22:49.061Z,99.90
2023-05-24T22:25:21.577Z,99.90
2023-05-24T22:27:51.039Z,99.90
2023-05-24T22:30:20.374Z,99.90
2023-05-24T22:32:50.233Z,99.90
2023-05-24T22:35:19.415Z,95.40
2023-05-24T22:37:49.514Z,94.50
2023-05-24T22:40:21.220Z,92.40
2023-05-24T22:42:51.011Z,92.60
2023-05-24T22:45:20.459Z,72.30
2023-05-24T22:47:50.292Z,64.40
2023-05-24T22:50:19.782Z,27.60
2023-05-24T22:52:49.634Z,36.50
2023-05-24T22:55:20.599Z,26.90
2023-05-24T22:57:50.086Z,15.50
2023-05-24T23:00:20.895Z,7.90
2023-05-24T23:02:50.174Z,22.90
2023-05-24T23:05:21.991Z,12.70
2023-05-24T23:07:52.115Z,22.20
2023-05-24T23:10:23.184Z,20.50
2023-05-24T23:12:52.417Z,11.00
2023-05-24T23:15:21.676Z,20.30
2023-05-24T23:17:52.830Z,44.80
2023-05-24T23:20:22.927Z,69.50
2023-05-24T23:22:52.232Z,90.20
2023-05-24T23:25:22.887Z,76.30
2023-05-24T23:27:51.934Z,63.80
2023-05-24T23:30:21.235Z,91.00
2023-05-24T23:32:50.556Z,97.30
2023-05-24T23:35:20.171Z,94.60
2023-05-24T23:37:49.649Z,99.90
2023-05-24T23:40:18.733Z,99.30
2023-05-24T23:42:50.582Z,99.90
2023-05-24T23:45:19.793Z,99.90
2023-05-24T23:47:49.008Z,99.90
2023-05-24T23:50:18.830Z,99.90
2023-05-24T23:52:48.314Z,99.90
2023-05-24T23:55:17.844Z,99.90
2023-05-24T23:57:48.996Z,99.40
